createdAt,value
2023-03-31T00:03:46.437Z,14.40
2023-03-31T00:08:52.544Z,12.50
2023-03-31T00:13:55.739Z,14.57
2023-03-31T00:18:59.133Z,16.33
2023-03-31T00:24:23.322Z,13.93
2023-03-31T00:29:27.113Z,13.95
2023-03-31T00:34:30.433Z,15.25
2023-03-31T00:39:35.302Z,16.75
2023-03-31T00:45:00.169Z,19.35
2023-03-31T00:50:03.038Z,18.50
2023-03-31T00:55:17.004Z,6.65
2023-03-31T01:00:22.210Z,4.90
2023-03-31T01:05:54.865Z,3.92
2023-03-31T01:11:02.100Z,4.35
2023-03-31T01:16:05.172Z,4.32
2023-03-31T01:21:41.202Z,3.72
2023-03-31T01:26:49.934Z,4.57
2023-03-31T01:32:22.163Z,2.95
2023-03-31T01:37:49.410Z,3.60
2023-03-31T01:43:21.643Z,3.75
2023-03-31T01:48:34.247Z,5.72
2023-03-31T01:53:55.170Z,6.00
2023-03-31T01:59:18.154Z,4.15
2023-03-31T02:04:26.735Z,6.38
2023-03-31T02:09:36.577Z,6.60
2023-03-31T02:14:47.737Z,7.05
2023-03-31T02:19:53.732Z,7.55
2023-03-31T02:25:00.586Z,9.07
2023-03-31T02:30:05.089Z,9.75
2023-03-31T02:35:12.628Z,9.88
2023-03-31T02:40:27.913Z,7.90
2023-03-31T02:45:41.663Z,8.38
2023-03-31T02:50:59.917Z,7.85
2023-03-31T02:56:17.985Z,9.85
2023-03-31T03:01:44.015Z,9.07
2023-03-31T03:06:53.981Z,7.38
2023-03-31T03:17:40.663Z,7.60
2023-03-31T03:22:43.525Z,8.50
2023-03-31T03:27:47.331Z,7.80
2023-03-31T03:32:50.781Z,7.55
2023-03-31T03:37:53.695Z,8.75
2023-03-31T03:42:56.506Z,8.13
2023-03-31T03:47:59.467Z,7.28
2023-03-31T03:53:02.762Z,7.60
2023-03-31T03:58:05.867Z,8.90
2023-03-31T04:03:08.917Z,7.53
2023-03-31T04:08:12.242Z,7.30
2023-03-31T04:13:19.127Z,8.02
2023-03-31T04:18:24.784Z,6.70
2023-03-31T04:23:27.624Z,7.22
2023-03-31T04:28:35.259Z,8.45
2023-03-31T04:33:40.107Z,8.27
2023-03-31T04:38:46.995Z,7.03
2023-03-31T04:43:50.215Z,7.43
2023-03-31T04:48:53.143Z,7.15
2023-03-31T04:53:56.071Z,9.20
2023-03-31T04:58:58.988Z,10.63
2023-03-31T05:04:02.505Z,12.13
2023-03-31T05:09:06.721Z,12.77
2023-03-31T05:14:09.507Z,12.63
2023-03-31T05:19:12.316Z,12.65
2023-03-31T05:24:15.230Z,12.57
2023-03-31T05:29:22.279Z,11.40
2023-03-31T05:34:44.215Z,11.07
2023-03-31T05:39:47.180Z,12.23
2023-03-31T05:44:50.109Z,12.60
2023-03-31T05:49:53.522Z,14.60
2023-03-31T05:54:56.345Z,18.50
2023-03-31T05:59:59.168Z,15.18
2023-03-31T06:05:02.175Z,16.42
2023-03-31T06:10:08.503Z,14.93
2023-03-31T06:15:11.909Z,16.88
2023-03-31T06:20:33.078Z,17.98
2023-03-31T06:25:50.399Z,15.55
2023-03-31T06:31:06.297Z,18.38
2023-03-31T06:36:11.038Z,12.43
2023-03-31T06:41:32.407Z,9.98
2023-03-31T06:46:35.627Z,9.90
2023-03-31T06:51:38.637Z,11.77
2023-03-31T06:56:41.561Z,11.82
2023-03-31T07:01:46.253Z,11.95
2023-03-31T07:06:49.354Z,12.75
2023-03-31T07:11:52.612Z,12.90
2023-03-31T07:17:14.413Z,12.85
2023-03-31T07:22:17.264Z,12.23
2023-03-31T07:27:20.384Z,13.00
2023-03-31T07:32:24.480Z,11.68
2023-03-31T07:37:28.889Z,10.55
2023-03-31T07:42:32.517Z,13.48
2023-03-31T07:47:35.803Z,14.05
2023-03-31T07:52:41.224Z,11.32
2023-03-31T07:57:46.593Z,10.25
2023-03-31T08:02:49.524Z,9.85
2023-03-31T08:07:52.483Z,11.32
2023-03-31T08:12:56.258Z,10.18
2023-03-31T08:17:59.777Z,10.23
2023-03-31T08:23:02.808Z,10.43
2023-03-31T08:28:07.105Z,9.27
2023-03-31T08:38:15.728Z,7.95
2023-03-31T08:43:27.898Z,11.25
2023-03-31T08:48:45.422Z,7.88
2023-03-31T08:53:59.478Z,9.07
2023-03-31T08:59:03.070Z,9.88
2023-03-31T09:04:15.283Z,8.00
2023-03-31T09:09:28.155Z,6.22
2023-03-31T09:14:41.633Z,7.72
2023-03-31T09:19:57.024Z,8.75
2023-03-31T09:25:23.870Z,8.88
2023-03-31T09:30:32.159Z,7.43
2023-03-31T09:35:35.271Z,8.55
2023-03-31T09:40:40.440Z,7.93
2023-03-31T09:45:52.082Z,7.18
2023-03-31T09:51:08.285Z,6.75
2023-03-31T09:56:11.811Z,6.38
2023-03-31T10:01:16.520Z,5.70
2023-03-31T10:06:21.135Z,7.97
2023-03-31T10:11:25.319Z,8.52
2023-03-31T10:16:31.434Z,6.65
2023-03-31T10:21:38.768Z,6.60
2023-03-31T10:26:41.624Z,5.75
2023-03-31T10:31:44.697Z,5.22
2023-03-31T10:36:52.173Z,7.25
2023-03-31T10:41:55.149Z,9.82
2023-03-31T10:47:05.731Z,7.28
2023-03-31T10:52:43.542Z,5.13
2023-03-31T10:58:01.543Z,5.60
2023-03-31T11:03:21.132Z,6.68
2023-03-31T11:08:33.176Z,6.85
2023-03-31T11:13:46.154Z,4.30
2023-03-31T11:19:11.991Z,5.18
2023-03-31T11:24:21.106Z,5.05
2023-03-31T11:29:51.694Z,3.70
2023-03-31T11:35:04.805Z,6.75
2023-03-31T11:40:26.509Z,7.50
2023-03-31T11:45:50.838Z,4.72
2023-03-31T11:50:55.283Z,6.93
2023-03-31T12:01:24.341Z,3.80
2023-03-31T12:06:47.570Z,6.30
2023-03-31T12:12:03.587Z,4.72
2023-03-31T12:17:11.874Z,5.32
2023-03-31T12:22:44.058Z,6.35
2023-03-31T12:27:50.219Z,6.63
2023-03-31T12:33:06.169Z,6.28
2023-03-31T12:38:28.111Z,7.75
2023-03-31T12:43:49.185Z,9.85
2023-03-31T12:48:54.811Z,7.30
2023-03-31T12:54:20.064Z,7.05
2023-03-31T12:59:33.853Z,9.27
2023-03-31T13:04:38.371Z,6.30
2023-03-31T13:10:15.371Z,6.88
2023-03-31T13:15:18.595Z,6.82
2023-03-31T13:20:38.340Z,8.48
2023-03-31T13:25:55.856Z,5.00
2023-03-31T13:31:07.828Z,7.18
2023-03-31T13:36:32.190Z,7.75
2023-03-31T13:42:02.437Z,5.38
2023-03-31T13:47:42.662Z,6.57
2023-03-31T13:53:48.614Z,8.82
2023-03-31T13:59:04.581Z,6.38
2023-03-31T14:04:26.071Z,6.80
2023-03-31T14:09:35.131Z,7.07
2023-03-31T14:14:41.336Z,8.10
2023-03-31T14:19:58.524Z,7.55
2023-03-31T14:25:22.834Z,6.68
2023-03-31T14:36:16.133Z,6.97
2023-03-31T14:41:29.781Z,7.50
2023-03-31T14:46:36.614Z,10.15
2023-03-31T14:51:44.562Z,8.38
2023-03-31T14:56:55.342Z,7.70
2023-03-31T15:02:01.537Z,10.32
2023-03-31T15:07:05.326Z,9.30
2023-03-31T15:12:15.466Z,10.23
2023-03-31T15:17:40.316Z,10.93
2023-03-31T15:22:43.295Z,12.18
2023-03-31T15:28:11.922Z,9.88
2023-03-31T15:33:22.985Z,10.55
2023-03-31T15:38:31.456Z,11.32
2023-03-31T15:43:51.024Z,11.02
2023-03-31T15:48:56.061Z,10.98
2023-03-31T15:53:58.917Z,11.00
2023-03-31T15:59:07.513Z,10.30
2023-03-31T16:04:13.056Z,10.50
2023-03-31T16:09:53.388Z,8.57
2023-03-31T16:15:05.050Z,11.68
2023-03-31T16:20:11.580Z,10.63
2023-03-31T16:25:18.729Z,10.07
2023-03-31T16:30:33.455Z,9.70
2023-03-31T16:35:55.616Z,8.50
2023-03-31T16:40:59.239Z,11.73
2023-03-31T16:46:04.901Z,7.85
2023-03-31T16:51:07.736Z,7.18
2023-03-31T16:56:12.369Z,10.15
2023-03-31T17:01:15.276Z,9.98
2023-03-31T17:06:18.199Z,7.72
2023-03-31T17:11:21.701Z,8.52
2023-03-31T17:16:32.812Z,11.73
2023-03-31T17:21:48.324Z,7.90
2023-03-31T17:26:51.363Z,8.23
2023-03-31T17:31:54.371Z,8.65
2023-03-31T17:36:57.386Z,9.80
2023-03-31T17:42:01.151Z,10.77
2023-03-31T17:47:04.294Z,9.68
2023-03-31T17:52:07.154Z,8.80
2023-03-31T17:57:10.317Z,8.98
2023-03-31T18:02:13.375Z,7.72
2023-03-31T18:07:18.560Z,10.10
2023-03-31T18:12:21.422Z,13.73
2023-03-31T18:17:24.267Z,13.73
2023-03-31T18:22:27.585Z,12.60
2023-03-31T18:27:30.367Z,12.73
2023-03-31T18:32:34.385Z,12.55
2023-03-31T18:37:37.476Z,16.58
2023-03-31T18:42:59.798Z,12.43
2023-03-31T18:48:03.312Z,12.23
2023-03-31T18:53:06.755Z,15.23
2023-03-31T18:58:09.992Z,18.45
2023-03-31T19:03:13.912Z,15.55
2023-03-31T19:08:17.031Z,15.75
2023-03-31T19:13:19.876Z,17.20
2023-03-31T19:18:22.808Z,16.83
2023-03-31T19:23:26.704Z,18.98
2023-03-31T19:28:30.885Z,20.50
2023-03-31T19:33:34.150Z,19.90
2023-03-31T19:38:37.177Z,18.55
2023-03-31T19:43:58.744Z,18.77
2023-03-31T19:49:01.728Z,20.80
2023-03-31T19:54:04.995Z,18.67
2023-03-31T19:59:08.245Z,18.27
2023-03-31T20:04:12.555Z,11.82
2023-03-31T20:14:18.467Z,14.65
2023-03-31T20:19:22.815Z,15.38
2023-03-31T20:29:30.538Z,14.27
2023-03-31T20:34:34.291Z,16.05
2023-03-31T20:39:37.774Z,13.13
2023-03-31T20:44:41.318Z,13.77
2023-03-31T20:49:44.351Z,13.20
2023-03-31T20:54:47.288Z,13.73
2023-03-31T20:59:50.886Z,13.73
2023-03-31T21:04:53.830Z,13.43
2023-03-31T21:09:56.630Z,15.48
2023-03-31T21:14:59.572Z,14.50
2023-03-31T21:20:03.793Z,12.25
2023-03-31T21:25:25.606Z,14.27
2023-03-31T21:30:28.564Z,12.43
2023-03-31T21:35:50.904Z,14.48
2023-03-31T21:40:54.491Z,12.77
2023-03-31T21:45:59.380Z,15.13
2023-03-31T21:51:03.282Z,12.95
2023-03-31T21:56:06.282Z,15.20
2023-03-31T22:01:09.506Z,16.35
2023-03-31T22:06:31.071Z,10.45
2023-03-31T22:11:34.072Z,12.15
2023-03-31T22:16:37.242Z,14.00
2023-03-31T22:21:41.127Z,12.50
2023-03-31T22:26:44.004Z,13.07
2023-03-31T22:31:46.922Z,13.07
2023-03-31T22:36:49.829Z,14.70
2023-03-31T22:41:52.736Z,12.95
2023-03-31T22:46:56.156Z,13.63
2023-03-31T22:51:59.182Z,12.43
2023-03-31T22:57:02.306Z,12.77
2023-03-31T23:02:06.502Z,11.52
2023-03-31T23:07:09.397Z,14.13
2023-03-31T23:12:12.236Z,11.80
2023-03-31T23:17:15.203Z,14.15
2023-03-31T23:22:19.080Z,12.63
2023-03-31T23:27:22.404Z,11.85
2023-03-31T23:32:25.537Z,13.05
2023-03-31T23:37:28.493Z,11.88
2023-03-31T23:42:31.610Z,13.05
2023-03-31T23:47:34.729Z,12.95
2023-03-31T23:52:59.524Z,9.27
2023-03-31T23:58:03.622Z,12.00
